sensor_id;sensor_type;location;lat;lon;timestamp;P1;durP1;ratioP1;P2;durP2;ratioP2
57730;SDS011;43570;47.476;19.040;2022-08-14T00:00:08;8.30;;;7.50;;
57730;SDS011;43570;47.476;19.040;2022-08-14T00:02:36;9.30;;;7.75;;
57730;SDS011;43570;47.476;19.040;2022-08-14T00:05:01;10.15;;;8.23;;
57730;SDS011;43570;47.476;19.040;2022-08-14T00:07:27;10.82;;;8.10;;
57730;SDS011;43570;47.476;19.040;2022-08-14T00:09:53;9.20;;;8.18;;
57730;SDS011;43570;47.476;19.040;2022-08-14T00:12:18;8.68;;;7.70;;
57730;SDS011;43570;47.476;19.040;2022-08-14T00:14:44;8.55;;;7.72;;
57730;SDS011;43570;47.476;19.040;2022-08-14T00:17:10;10.02;;;7.87;;
57730;SDS011;43570;47.476;19.040;2022-08-14T00:19:35;9.52;;;7.82;;
57730;SDS011;43570;47.476;19.040;2022-08-14T00:22:01;9.38;;;7.43;;
57730;SDS011;43570;47.476;19.040;2022-08-14T00:24:26;9.25;;;8.30;;
57730;SDS011;43570;47.476;19.040;2022-08-14T00:26:51;10.93;;;8.13;;
57730;SDS011;43570;47.476;19.040;2022-08-14T00:29:17;9.27;;;8.13;;
57730;SDS011;43570;47.476;19.040;2022-08-14T00:31:43;9.85;;;8.05;;
57730;SDS011;43570;47.476;19.040;2022-08-14T00:34:08;10.23;;;8.40;;
57730;SDS011;43570;47.476;19.040;2022-08-14T00:36:33;13.07;;;11.27;;
57730;SDS011;43570;47.476;19.040;2022-08-14T00:38:59;12.32;;;8.65;;
57730;SDS011;43570;47.476;19.040;2022-08-14T00:41:28;10.10;;;8.35;;
57730;SDS011;43570;47.476;19.040;2022-08-14T00:43:55;12.25;;;8.27;;
57730;SDS011;43570;47.476;19.040;2022-08-14T00:46:20;9.63;;;8.63;;
57730;SDS011;43570;47.476;19.040;2022-08-14T00:48:45;10.70;;;8.60;;
57730;SDS011;43570;47.476;19.040;2022-08-14T00:51:12;10.75;;;8.57;;
57730;SDS011;43570;47.476;19.040;2022-08-14T00:53:38;10.52;;;8.40;;
57730;SDS011;43570;47.476;19.040;2022-08-14T00:56:04;9.75;;;8.50;;
57730;SDS011;43570;47.476;19.040;2022-08-14T00:58:31;9.90;;;8.60;;
57730;SDS011;43570;47.476;19.040;2022-08-14T01:01:02;9.15;;;8.25;;
57730;SDS011;43570;47.476;19.040;2022-08-14T01:03:29;10.32;;;8.45;;
57730;SDS011;43570;47.476;19.040;2022-08-14T01:05:56;9.05;;;7.62;;
57730;SDS011;43570;47.476;19.040;2022-08-14T01:08:24;12.05;;;8.30;;
57730;SDS011;43570;47.476;19.040;2022-08-14T01:10:51;9.02;;;8.13;;
57730;SDS011;43570;47.476;19.040;2022-08-14T01:13:26;9.45;;;8.32;;
57730;SDS011;43570;47.476;19.040;2022-08-14T01:15:54;10.07;;;8.35;;
57730;SDS011;43570;47.476;19.040;2022-08-14T01:18:21;10.02;;;8.90;;
57730;SDS011;43570;47.476;19.040;2022-08-14T01:21:07;9.75;;;8.55;;
57730;SDS011;43570;47.476;19.040;2022-08-14T01:23:47;9.63;;;8.18;;
57730;SDS011;43570;47.476;19.040;2022-08-14T01:26:18;10.48;;;8.43;;
57730;SDS011;43570;47.476;19.040;2022-08-14T01:28:45;9.93;;;8.65;;
57730;SDS011;43570;47.476;19.040;2022-08-14T01:31:15;10.38;;;8.77;;
57730;SDS011;43570;47.476;19.040;2022-08-14T01:33:43;10.38;;;8.43;;
57730;SDS011;43570;47.476;19.040;2022-08-14T01:36:12;9.95;;;8.52;;
57730;SDS011;43570;47.476;19.040;2022-08-14T01:38:40;10.45;;;8.60;;
57730;SDS011;43570;47.476;19.040;2022-08-14T01:41:08;10.82;;;7.90;;
57730;SDS011;43570;47.476;19.040;2022-08-14T01:44:10;10.30;;;8.90;;
57730;SDS011;43570;47.476;19.040;2022-08-14T01:46:35;10.00;;;8.32;;
57730;SDS011;43570;47.476;19.040;2022-08-14T01:51:31;10.85;;;9.18;;
57730;SDS011;43570;47.476;19.040;2022-08-14T01:53:59;9.38;;;8.40;;
57730;SDS011;43570;47.476;19.040;2022-08-14T01:56:27;10.95;;;8.45;;
57730;SDS011;43570;47.476;19.040;2022-08-14T01:59:02;10.80;;;8.30;;
57730;SDS011;43570;47.476;19.040;2022-08-14T02:01:30;9.68;;;8.68;;
57730;SDS011;43570;47.476;19.040;2022-08-14T02:03:56;9.30;;;8.40;;
57730;SDS011;43570;47.476;19.040;2022-08-14T02:06:21;11.88;;;8.95;;
57730;SDS011;43570;47.476;19.040;2022-08-14T02:08:47;11.10;;;8.52;;
57730;SDS011;43570;47.476;19.040;2022-08-14T02:11:12;10.13;;;8.98;;
57730;SDS011;43570;47.476;19.040;2022-08-14T02:16:22;9.82;;;8.50;;
57730;SDS011;43570;47.476;19.040;2022-08-14T02:18:54;10.98;;;9.70;;
57730;SDS011;43570;47.476;19.040;2022-08-14T02:21:21;11.57;;;9.52;;
57730;SDS011;43570;47.476;19.040;2022-08-14T02:23:48;12.18;;;9.35;;
57730;SDS011;43570;47.476;19.040;2022-08-14T02:26:16;13.73;;;10.23;;
57730;SDS011;43570;47.476;19.040;2022-08-14T02:28:43;11.15;;;9.68;;
57730;SDS011;43570;47.476;19.040;2022-08-14T02:31:09;12.07;;;9.68;;
57730;SDS011;43570;47.476;19.040;2022-08-14T02:33:36;12.63;;;9.55;;
57730;SDS011;43570;47.476;19.040;2022-08-14T02:36:02;14.35;;;9.43;;
57730;SDS011;43570;47.476;19.040;2022-08-14T02:38:28;11.43;;;8.88;;
57730;SDS011;43570;47.476;19.040;2022-08-14T02:40:55;11.70;;;9.40;;
57730;SDS011;43570;47.476;19.040;2022-08-14T02:43:21;10.45;;;8.95;;
57730;SDS011;43570;47.476;19.040;2022-08-14T02:45:47;10.93;;;8.75;;
57730;SDS011;43570;47.476;19.040;2022-08-14T02:48:13;12.35;;;9.95;;
57730;SDS011;43570;47.476;19.040;2022-08-14T02:50:38;10.52;;;9.43;;
57730;SDS011;43570;47.476;19.040;2022-08-14T02:53:06;10.13;;;9.02;;
57730;SDS011;43570;47.476;19.040;2022-08-14T02:55:32;10.35;;;9.25;;
57730;SDS011;43570;47.476;19.040;2022-08-14T02:57:57;14.18;;;9.68;;
57730;SDS011;43570;47.476;19.040;2022-08-14T03:00:23;11.00;;;9.57;;
57730;SDS011;43570;47.476;19.040;2022-08-14T03:02:48;11.85;;;10.25;;
57730;SDS011;43570;47.476;19.040;2022-08-14T03:05:17;10.10;;;9.10;;
57730;SDS011;43570;47.476;19.040;2022-08-14T03:07:42;10.65;;;9.35;;
57730;SDS011;43570;47.476;19.040;2022-08-14T03:10:08;10.98;;;8.82;;
57730;SDS011;43570;47.476;19.040;2022-08-14T03:12:34;9.90;;;8.88;;
57730;SDS011;43570;47.476;19.040;2022-08-14T03:15:01;10.55;;;9.20;;
57730;SDS011;43570;47.476;19.040;2022-08-14T03:17:32;10.70;;;8.23;;
57730;SDS011;43570;47.476;19.040;2022-08-14T03:19:59;9.70;;;8.70;;
57730;SDS011;43570;47.476;19.040;2022-08-14T03:22:24;11.25;;;9.23;;
57730;SDS011;43570;47.476;19.040;2022-08-14T03:24:50;10.55;;;8.60;;
57730;SDS011;43570;47.476;19.040;2022-08-14T03:27:15;10.30;;;8.60;;
57730;SDS011;43570;47.476;19.040;2022-08-14T03:29:40;11.23;;;8.70;;
57730;SDS011;43570;47.476;19.040;2022-08-14T03:32:06;9.02;;;8.10;;
57730;SDS011;43570;47.476;19.040;2022-08-14T03:34:31;9.80;;;8.80;;
57730;SDS011;43570;47.476;19.040;2022-08-14T03:36:57;10.38;;;8.98;;
57730;SDS011;43570;47.476;19.040;2022-08-14T03:39:22;9.63;;;8.65;;
57730;SDS011;43570;47.476;19.040;2022-08-14T03:41:49;9.98;;;8.98;;
57730;SDS011;43570;47.476;19.040;2022-08-14T03:44:19;11.10;;;9.80;;
57730;SDS011;43570;47.476;19.040;2022-08-14T03:46:44;10.60;;;9.50;;
57730;SDS011;43570;47.476;19.040;2022-08-14T03:49:10;12.70;;;9.73;;
57730;SDS011;43570;47.476;19.040;2022-08-14T03:51:35;11.02;;;9.20;;
57730;SDS011;43570;47.476;19.040;2022-08-14T03:54:04;10.23;;;9.20;;
57730;SDS011;43570;47.476;19.040;2022-08-14T03:56:36;11.57;;;9.90;;
57730;SDS011;43570;47.476;19.040;2022-08-14T03:59:02;9.57;;;8.52;;
57730;SDS011;43570;47.476;19.040;2022-08-14T04:01:35;10.38;;;8.52;;
57730;SDS011;43570;47.476;19.040;2022-08-14T04:04:03;10.48;;;8.57;;
57730;SDS011;43570;47.476;19.040;2022-08-14T04:06:30;9.77;;;8.77;;
57730;SDS011;43570;47.476;19.040;2022-08-14T04:08:57;9.63;;;8.63;;
57730;SDS011;43570;47.476;19.040;2022-08-14T04:11:23;10.00;;;8.68;;
57730;SDS011;43570;47.476;19.040;2022-08-14T04:13:48;10.38;;;8.43;;
57730;SDS011;43570;47.476;19.040;2022-08-14T04:16:15;10.90;;;8.93;;
57730;SDS011;43570;47.476;19.040;2022-08-14T04:18:44;10.90;;;9.07;;
57730;SDS011;43570;47.476;19.040;2022-08-14T04:21:11;10.32;;;8.43;;
57730;SDS011;43570;47.476;19.040;2022-08-14T04:23:38;10.70;;;9.05;;
57730;SDS011;43570;47.476;19.040;2022-08-14T04:26:05;11.80;;;8.40;;
57730;SDS011;43570;47.476;19.040;2022-08-14T04:28:32;9.60;;;8.55;;
57730;SDS011;43570;47.476;19.040;2022-08-14T04:31:00;9.98;;;8.00;;
57730;SDS011;43570;47.476;19.040;2022-08-14T04:33:25;11.45;;;8.57;;
57730;SDS011;43570;47.476;19.040;2022-08-14T04:35:53;9.82;;;8.55;;
57730;SDS011;43570;47.476;19.040;2022-08-14T04:38:19;10.68;;;8.65;;
57730;SDS011;43570;47.476;19.040;2022-08-14T04:41:04;12.73;;;8.75;;
57730;SDS011;43570;47.476;19.040;2022-08-14T04:43:48;9.30;;;8.30;;
57730;SDS011;43570;47.476;19.040;2022-08-14T04:46:17;9.85;;;8.10;;
57730;SDS011;43570;47.476;19.040;2022-08-14T04:48:44;10.52;;;8.70;;
57730;SDS011;43570;47.476;19.040;2022-08-14T04:51:13;11.48;;;9.32;;
57730;SDS011;43570;47.476;19.040;2022-08-14T04:53:41;11.10;;;8.85;;
57730;SDS011;43570;47.476;19.040;2022-08-14T04:56:11;10.48;;;9.07;;
57730;SDS011;43570;47.476;19.040;2022-08-14T04:58:39;13.15;;;9.77;;
57730;SDS011;43570;47.476;19.040;2022-08-14T05:01:06;11.30;;;9.80;;
57730;SDS011;43570;47.476;19.040;2022-08-14T05:03:34;11.32;;;9.38;;
57730;SDS011;43570;47.476;19.040;2022-08-14T05:06:03;10.07;;;8.90;;
57730;SDS011;43570;47.476;19.040;2022-08-14T05:08:29;11.88;;;9.77;;
57730;SDS011;43570;47.476;19.040;2022-08-14T05:10:56;12.52;;;9.77;;
57730;SDS011;43570;47.476;19.040;2022-08-14T05:13:25;12.90;;;10.52;;
57730;SDS011;43570;47.476;19.040;2022-08-14T05:15:52;12.05;;;9.32;;
57730;SDS011;43570;47.476;19.040;2022-08-14T05:18:19;12.52;;;9.57;;
57730;SDS011;43570;47.476;19.040;2022-08-14T05:20:48;11.65;;;10.15;;
57730;SDS011;43570;47.476;19.040;2022-08-14T05:23:16;12.30;;;9.00;;
57730;SDS011;43570;47.476;19.040;2022-08-14T05:25:45;10.45;;;9.38;;
57730;SDS011;43570;47.476;19.040;2022-08-14T05:28:13;12.05;;;9.85;;
57730;SDS011;43570;47.476;19.040;2022-08-14T05:30:46;10.07;;;9.05;;
57730;SDS011;43570;47.476;19.040;2022-08-14T05:33:13;10.20;;;8.65;;
57730;SDS011;43570;47.476;19.040;2022-08-14T05:35:41;10.90;;;9.80;;
57730;SDS011;43570;47.476;19.040;2022-08-14T05:38:08;10.35;;;9.18;;
57730;SDS011;43570;47.476;19.040;2022-08-14T05:40:36;15.27;;;10.27;;
57730;SDS011;43570;47.476;19.040;2022-08-14T05:43:02;10.50;;;9.40;;
57730;SDS011;43570;47.476;19.040;2022-08-14T05:45:27;10.70;;;9.60;;
57730;SDS011;43570;47.476;19.040;2022-08-14T05:47:53;10.48;;;8.93;;
57730;SDS011;43570;47.476;19.040;2022-08-14T05:50:19;11.23;;;9.48;;
57730;SDS011;43570;47.476;19.040;2022-08-14T05:52:44;11.20;;;9.25;;
57730;SDS011;43570;47.476;19.040;2022-08-14T05:55:10;10.15;;;8.95;;
57730;SDS011;43570;47.476;19.040;2022-08-14T05:57:49;11.18;;;10.02;;
57730;SDS011;43570;47.476;19.040;2022-08-14T06:00:19;10.82;;;9.27;;
57730;SDS011;43570;47.476;19.040;2022-08-14T06:02:49;12.25;;;8.63;;
57730;SDS011;43570;47.476;19.040;2022-08-14T06:05:14;10.77;;;9.23;;
57730;SDS011;43570;47.476;19.040;2022-08-14T06:07:40;11.88;;;8.50;;
57730;SDS011;43570;47.476;19.040;2022-08-14T06:10:06;10.00;;;9.00;;
57730;SDS011;43570;47.476;19.040;2022-08-14T06:12:32;9.10;;;8.20;;
57730;SDS011;43570;47.476;19.040;2022-08-14T06:14:58;9.60;;;8.40;;
57730;SDS011;43570;47.476;19.040;2022-08-14T06:17:23;9.77;;;7.78;;
57730;SDS011;43570;47.476;19.040;2022-08-14T06:19:49;9.20;;;7.87;;
57730;SDS011;43570;47.476;19.040;2022-08-14T06:22:15;9.93;;;8.00;;
57730;SDS011;43570;47.476;19.040;2022-08-14T06:24:40;10.07;;;7.75;;
57730;SDS011;43570;47.476;19.040;2022-08-14T06:27:05;9.35;;;8.07;;
57730;SDS011;43570;47.476;19.040;2022-08-14T06:29:31;9.05;;;8.15;;
57730;SDS011;43570;47.476;19.040;2022-08-14T06:31:57;11.93;;;7.57;;
57730;SDS011;43570;47.476;19.040;2022-08-14T06:34:23;9.73;;;7.82;;
57730;SDS011;43570;47.476;19.040;2022-08-14T06:36:48;10.35;;;7.95;;
57730;SDS011;43570;47.476;19.040;2022-08-14T06:39:14;9.90;;;7.93;;
57730;SDS011;43570;47.476;19.040;2022-08-14T06:41:39;8.23;;;7.28;;
57730;SDS011;43570;47.476;19.040;2022-08-14T06:44:06;9.77;;;7.68;;
57730;SDS011;43570;47.476;19.040;2022-08-14T06:46:34;9.60;;;8.50;;
57730;SDS011;43570;47.476;19.040;2022-08-14T06:48:59;9.52;;;8.02;;
57730;SDS011;43570;47.476;19.040;2022-08-14T06:51:25;9.77;;;8.68;;
57730;SDS011;43570;47.476;19.040;2022-08-14T06:53:50;9.70;;;8.43;;
57730;SDS011;43570;47.476;19.040;2022-08-14T06:56:15;11.52;;;8.00;;
57730;SDS011;43570;47.476;19.040;2022-08-14T06:58:41;8.85;;;7.87;;
57730;SDS011;43570;47.476;19.040;2022-08-14T07:01:06;9.50;;;8.50;;
57730;SDS011;43570;47.476;19.040;2022-08-14T07:03:50;10.73;;;8.15;;
57730;SDS011;43570;47.476;19.040;2022-08-14T07:06:34;9.63;;;8.63;;
57730;SDS011;43570;47.476;19.040;2022-08-14T07:08:59;10.43;;;8.85;;
57730;SDS011;43570;47.476;19.040;2022-08-14T07:11:25;9.50;;;8.60;;
57730;SDS011;43570;47.476;19.040;2022-08-14T07:13:50;9.80;;;8.80;;
57730;SDS011;43570;47.476;19.040;2022-08-14T07:16:15;11.50;;;8.82;;
57730;SDS011;43570;47.476;19.040;2022-08-14T07:18:41;10.63;;;8.82;;
57730;SDS011;43570;47.476;19.040;2022-08-14T07:21:07;9.25;;;8.13;;
57730;SDS011;43570;47.476;19.040;2022-08-14T07:23:33;9.10;;;8.00;;
57730;SDS011;43570;47.476;19.040;2022-08-14T07:25:59;10.15;;;8.82;;
57730;SDS011;43570;47.476;19.040;2022-08-14T07:28:27;11.70;;;9.25;;
57730;SDS011;43570;47.476;19.040;2022-08-14T07:30:56;9.90;;;8.90;;
57730;SDS011;43570;47.476;19.040;2022-08-14T07:33:25;10.98;;;8.57;;
57730;SDS011;43570;47.476;19.040;2022-08-14T07:35:53;10.75;;;8.45;;
57730;SDS011;43570;47.476;19.040;2022-08-14T07:38:20;9.95;;;8.40;;
57730;SDS011;43570;47.476;19.040;2022-08-14T07:40:47;10.52;;;8.98;;
57730;SDS011;43570;47.476;19.040;2022-08-14T07:43:14;9.45;;;8.30;;
57730;SDS011;43570;47.476;19.040;2022-08-14T07:45:40;12.37;;;8.90;;
57730;SDS011;43570;47.476;19.040;2022-08-14T07:48:06;10.32;;;8.60;;
57730;SDS011;43570;47.476;19.040;2022-08-14T07:50:31;10.45;;;8.82;;
57730;SDS011;43570;47.476;19.040;2022-08-14T07:52:57;10.65;;;8.65;;
57730;SDS011;43570;47.476;19.040;2022-08-14T07:55:23;11.48;;;8.57;;
57730;SDS011;43570;47.476;19.040;2022-08-14T07:57:49;9.25;;;7.87;;
57730;SDS011;43570;47.476;19.040;2022-08-14T08:00:16;9.90;;;8.18;;
57730;SDS011;43570;47.476;19.040;2022-08-14T08:02:44;10.70;;;8.38;;
57730;SDS011;43570;47.476;19.040;2022-08-14T08:05:11;8.82;;;7.90;;
57730;SDS011;43570;47.476;19.040;2022-08-14T08:07:38;9.88;;;8.27;;
57730;SDS011;43570;47.476;19.040;2022-08-14T08:12:54;9.93;;;8.30;;
57730;SDS011;43570;47.476;19.040;2022-08-14T08:15:21;9.65;;;8.32;;
57730;SDS011;43570;47.476;19.040;2022-08-14T08:17:48;9.23;;;8.30;;
57730;SDS011;43570;47.476;19.040;2022-08-14T08:20:14;11.00;;;8.38;;
57730;SDS011;43570;47.476;19.040;2022-08-14T08:22:41;9.90;;;8.88;;
57730;SDS011;43570;47.476;19.040;2022-08-14T08:25:07;11.05;;;8.43;;
57730;SDS011;43570;47.476;19.040;2022-08-14T08:27:33;8.77;;;7.85;;
57730;SDS011;43570;47.476;19.040;2022-08-14T08:30:06;9.55;;;8.23;;
57730;SDS011;43570;47.476;19.040;2022-08-14T08:32:37;9.63;;;8.52;;
57730;SDS011;43570;47.476;19.040;2022-08-14T08:35:04;9.60;;;8.60;;
57730;SDS011;43570;47.476;19.040;2022-08-14T08:37:29;10.10;;;8.30;;
57730;SDS011;43570;47.476;19.040;2022-08-14T08:39:59;9.68;;;7.82;;
57730;SDS011;43570;47.476;19.040;2022-08-14T08:42:24;9.05;;;8.10;;
57730;SDS011;43570;47.476;19.040;2022-08-14T08:44:53;8.85;;;7.45;;
57730;SDS011;43570;47.476;19.040;2022-08-14T08:47:19;9.20;;;8.20;;
57730;SDS011;43570;47.476;19.040;2022-08-14T08:49:45;9.95;;;8.23;;
57730;SDS011;43570;47.476;19.040;2022-08-14T08:52:10;9.43;;;7.75;;
57730;SDS011;43570;47.476;19.040;2022-08-14T08:54:37;10.18;;;8.73;;
57730;SDS011;43570;47.476;19.040;2022-08-14T08:57:09;9.48;;;8.57;;
57730;SDS011;43570;47.476;19.040;2022-08-14T08:59:35;8.90;;;8.00;;
57730;SDS011;43570;47.476;19.040;2022-08-14T09:02:01;10.30;;;8.55;;
57730;SDS011;43570;47.476;19.040;2022-08-14T09:04:32;9.05;;;8.15;;
57730;SDS011;43570;47.476;19.040;2022-08-14T09:07:03;9.98;;;7.70;;
57730;SDS011;43570;47.476;19.040;2022-08-14T09:09:29;9.30;;;7.80;;
57730;SDS011;43570;47.476;19.040;2022-08-14T09:11:57;7.80;;;7.07;;
57730;SDS011;43570;47.476;19.040;2022-08-14T09:14:24;9.05;;;7.80;;
57730;SDS011;43570;47.476;19.040;2022-08-14T09:16:51;9.60;;;7.95;;
57730;SDS011;43570;47.476;19.040;2022-08-14T09:19:18;9.07;;;7.40;;
57730;SDS011;43570;47.476;19.040;2022-08-14T09:21:45;8.90;;;7.62;;
57730;SDS011;43570;47.476;19.040;2022-08-14T09:24:11;9.43;;;7.90;;
57730;SDS011;43570;47.476;19.040;2022-08-14T09:26:37;8.40;;;7.20;;
57730;SDS011;43570;47.476;19.040;2022-08-14T09:29:03;12.27;;;7.85;;
57730;SDS011;43570;47.476;19.040;2022-08-14T09:31:29;9.30;;;8.32;;
57730;SDS011;43570;47.476;19.040;2022-08-14T09:44:51;8.98;;;7.95;;
57730;SDS011;43570;47.476;19.040;2022-08-14T09:47:41;8.70;;;7.80;;
57730;SDS011;43570;47.476;19.040;2022-08-14T09:50:17;9.90;;;7.87;;
57730;SDS011;43570;47.476;19.040;2022-08-14T09:52:55;8.68;;;7.47;;
57730;SDS011;43570;47.476;19.040;2022-08-14T09:55:27;11.52;;;7.57;;
57730;SDS011;43570;47.476;19.040;2022-08-14T09:58:18;11.57;;;7.30;;
57730;SDS011;43570;47.476;19.040;2022-08-14T10:00:51;9.02;;;7.47;;
57730;SDS011;43570;47.476;19.040;2022-08-14T10:03:25;9.10;;;7.68;;
57730;SDS011;43570;47.476;19.040;2022-08-14T10:06:13;9.20;;;7.87;;
57730;SDS011;43570;47.476;19.040;2022-08-14T10:08:46;8.38;;;7.20;;
57730;SDS011;43570;47.476;19.040;2022-08-14T10:11:24;8.00;;;6.68;;
57730;SDS011;43570;47.476;19.040;2022-08-14T10:13:52;8.85;;;7.05;;
57730;SDS011;43570;47.476;19.040;2022-08-14T10:16:22;8.25;;;7.07;;
57730;SDS011;43570;47.476;19.040;2022-08-14T10:21:31;8.90;;;7.03;;
57730;SDS011;43570;47.476;19.040;2022-08-14T10:23:57;9.75;;;7.20;;
57730;SDS011;43570;47.476;19.040;2022-08-14T10:26:22;8.55;;;7.00;;
57730;SDS011;43570;47.476;19.040;2022-08-14T10:28:49;10.52;;;7.43;;
57730;SDS011;43570;47.476;19.040;2022-08-14T10:33:57;7.50;;;6.67;;
57730;SDS011;43570;47.476;19.040;2022-08-14T10:36:34;7.72;;;6.93;;
57730;SDS011;43570;47.476;19.040;2022-08-14T10:39:05;7.45;;;6.65;;
57730;SDS011;43570;47.476;19.040;2022-08-14T10:41:41;8.02;;;6.07;;
57730;SDS011;43570;47.476;19.040;2022-08-14T10:44:09;7.55;;;6.47;;
57730;SDS011;43570;47.476;19.040;2022-08-14T10:49:16;7.47;;;6.78;;
57730;SDS011;43570;47.476;19.040;2022-08-14T10:51:53;7.45;;;6.20;;
57730;SDS011;43570;47.476;19.040;2022-08-14T10:54:31;7.63;;;6.03;;
57730;SDS011;43570;47.476;19.040;2022-08-14T10:57:09;8.35;;;5.78;;
57730;SDS011;43570;47.476;19.040;2022-08-14T10:59:57;7.05;;;5.82;;
57730;SDS011;43570;47.476;19.040;2022-08-14T11:02:34;8.75;;;5.95;;
57730;SDS011;43570;47.476;19.040;2022-08-14T11:05:11;7.72;;;6.07;;
57730;SDS011;43570;47.476;19.040;2022-08-14T11:07:38;7.18;;;6.00;;
57730;SDS011;43570;47.476;19.040;2022-08-14T11:10:07;7.53;;;5.85;;
57730;SDS011;43570;47.476;19.040;2022-08-14T11:12:41;7.53;;;6.05;;
57730;SDS011;43570;47.476;19.040;2022-08-14T11:15:19;6.28;;;5.40;;
57730;SDS011;43570;47.476;19.040;2022-08-14T11:17:46;7.20;;;5.53;;
57730;SDS011;43570;47.476;19.040;2022-08-14T11:20:13;6.82;;;5.37;;
57730;SDS011;43570;47.476;19.040;2022-08-14T11:22:40;7.95;;;6.20;;
57730;SDS011;43570;47.476;19.040;2022-08-14T11:25:07;6.65;;;5.18;;
57730;SDS011;43570;47.476;19.040;2022-08-14T11:27:38;6.47;;;5.45;;
57730;SDS011;43570;47.476;19.040;2022-08-14T11:30:06;7.18;;;5.12;;
57730;SDS011;43570;47.476;19.040;2022-08-14T11:32:33;6.00;;;5.40;;
57730;SDS011;43570;47.476;19.040;2022-08-14T11:34:59;7.20;;;5.60;;
57730;SDS011;43570;47.476;19.040;2022-08-14T11:37:27;6.22;;;5.22;;
57730;SDS011;43570;47.476;19.040;2022-08-14T11:39:57;6.32;;;5.40;;
57730;SDS011;43570;47.476;19.040;2022-08-14T11:42:24;6.50;;;5.05;;
57730;SDS011;43570;47.476;19.040;2022-08-14T11:44:51;6.80;;;6.10;;
57730;SDS011;43570;47.476;19.040;2022-08-14T11:47:18;7.20;;;5.80;;
57730;SDS011;43570;47.476;19.040;2022-08-14T11:49:44;6.22;;;5.30;;
57730;SDS011;43570;47.476;19.040;2022-08-14T11:52:12;6.63;;;5.60;;
57730;SDS011;43570;47.476;19.040;2022-08-14T11:54:39;7.70;;;6.10;;
57730;SDS011;43570;47.476;19.040;2022-08-14T11:57:04;7.40;;;5.72;;
57730;SDS011;43570;47.476;19.040;2022-08-14T11:59:30;6.78;;;6.05;;
57730;SDS011;43570;47.476;19.040;2022-08-14T12:02:07;6.90;;;5.68;;
57730;SDS011;43570;47.476;19.040;2022-08-14T12:04:46;7.00;;;6.18;;
57730;SDS011;43570;47.476;19.040;2022-08-14T12:07:12;7.97;;;5.70;;
57730;SDS011;43570;47.476;19.040;2022-08-14T12:09:38;6.35;;;5.60;;
57730;SDS011;43570;47.476;19.040;2022-08-14T12:12:16;5.10;;;4.57;;
57730;SDS011;43570;47.476;19.040;2022-08-14T12:14:53;6.35;;;5.05;;
57730;SDS011;43570;47.476;19.040;2022-08-14T12:17:25;8.18;;;6.40;;
57730;SDS011;43570;47.476;19.040;2022-08-14T12:22:32;6.62;;;5.75;;
57730;SDS011;43570;47.476;19.040;2022-08-14T12:24:59;7.65;;;5.87;;
57730;SDS011;43570;47.476;19.040;2022-08-14T12:27:41;9.68;;;5.50;;
57730;SDS011;43570;47.476;19.040;2022-08-14T12:30:24;6.93;;;5.60;;
57730;SDS011;43570;47.476;19.040;2022-08-14T12:33:00;6.62;;;5.78;;
57730;SDS011;43570;47.476;19.040;2022-08-14T12:35:40;6.50;;;5.60;;
57730;SDS011;43570;47.476;19.040;2022-08-14T12:38:07;5.87;;;5.28;;
57730;SDS011;43570;47.476;19.040;2022-08-14T12:40:44;5.80;;;5.20;;
57730;SDS011;43570;47.476;19.040;2022-08-14T12:43:14;6.53;;;5.80;;
57730;SDS011;43570;47.476;19.040;2022-08-14T12:45:44;6.65;;;5.50;;
57730;SDS011;43570;47.476;19.040;2022-08-14T12:48:14;7.15;;;5.43;;
57730;SDS011;43570;47.476;19.040;2022-08-14T12:50:41;6.95;;;5.55;;
57730;SDS011;43570;47.476;19.040;2022-08-14T12:53:08;6.85;;;5.72;;
57730;SDS011;43570;47.476;19.040;2022-08-14T12:55:35;7.28;;;5.43;;
57730;SDS011;43570;47.476;19.040;2022-08-14T12:58:02;7.60;;;6.20;;
57730;SDS011;43570;47.476;19.040;2022-08-14T13:00:33;6.47;;;5.43;;
57730;SDS011;43570;47.476;19.040;2022-08-14T13:03:01;14.07;;;5.75;;
57730;SDS011;43570;47.476;19.040;2022-08-14T13:05:29;6.85;;;5.28;;
57730;SDS011;43570;47.476;19.040;2022-08-14T13:07:57;10.07;;;5.57;;
57730;SDS011;43570;47.476;19.040;2022-08-14T13:10:24;7.68;;;5.75;;
57730;SDS011;43570;47.476;19.040;2022-08-14T13:12:53;6.57;;;5.43;;
57730;SDS011;43570;47.476;19.040;2022-08-14T13:15:19;6.47;;;5.53;;
57730;SDS011;43570;47.476;19.040;2022-08-14T13:17:49;6.68;;;5.97;;
57730;SDS011;43570;47.476;19.040;2022-08-14T13:20:16;6.53;;;5.93;;
57730;SDS011;43570;47.476;19.040;2022-08-14T13:22:46;7.07;;;5.47;;
57730;SDS011;43570;47.476;19.040;2022-08-14T13:25:12;6.85;;;5.62;;
57730;SDS011;43570;47.476;19.040;2022-08-14T13:27:44;6.65;;;5.35;;
57730;SDS011;43570;47.476;19.040;2022-08-14T13:30:11;7.03;;;5.72;;
57730;SDS011;43570;47.476;19.040;2022-08-14T13:32:38;6.68;;;5.90;;
57730;SDS011;43570;47.476;19.040;2022-08-14T13:35:07;7.07;;;6.37;;
57730;SDS011;43570;47.476;19.040;2022-08-14T13:37:34;8.80;;;5.97;;
57730;SDS011;43570;47.476;19.040;2022-08-14T13:40:00;6.85;;;5.78;;
57730;SDS011;43570;47.476;19.040;2022-08-14T13:42:26;6.05;;;5.45;;
57730;SDS011;43570;47.476;19.040;2022-08-14T13:44:52;9.65;;;6.18;;
57730;SDS011;43570;47.476;19.040;2022-08-14T13:47:22;7.50;;;5.80;;
57730;SDS011;43570;47.476;19.040;2022-08-14T13:49:50;7.35;;;6.30;;
57730;SDS011;43570;47.476;19.040;2022-08-14T13:52:17;7.22;;;6.00;;
57730;SDS011;43570;47.476;19.040;2022-08-14T13:54:44;6.30;;;5.62;;
57730;SDS011;43570;47.476;19.040;2022-08-14T13:57:11;11.25;;;6.30;;
57730;SDS011;43570;47.476;19.040;2022-08-14T13:59:37;6.60;;;5.82;;
57730;SDS011;43570;47.476;19.040;2022-08-14T14:02:08;7.62;;;6.22;;
57730;SDS011;43570;47.476;19.040;2022-08-14T14:04:37;6.97;;;6.28;;
57730;SDS011;43570;47.476;19.040;2022-08-14T14:07:07;6.90;;;6.22;;
57730;SDS011;43570;47.476;19.040;2022-08-14T14:09:35;6.90;;;5.68;;
57730;SDS011;43570;47.476;19.040;2022-08-14T14:12:03;6.72;;;6.03;;
57730;SDS011;43570;47.476;19.040;2022-08-14T14:14:30;6.97;;;6.25;;
57730;SDS011;43570;47.476;19.040;2022-08-14T14:16:55;6.60;;;5.90;;
57730;SDS011;43570;47.476;19.040;2022-08-14T14:19:21;6.43;;;5.65;;
57730;SDS011;43570;47.476;19.040;2022-08-14T14:21:49;9.63;;;6.07;;
57730;SDS011;43570;47.476;19.040;2022-08-14T14:24:15;7.65;;;5.43;;
57730;SDS011;43570;47.476;19.040;2022-08-14T14:26:46;7.55;;;6.80;;
57730;SDS011;43570;47.476;19.040;2022-08-14T14:29:13;7.28;;;6.28;;
57730;SDS011;43570;47.476;19.040;2022-08-14T14:31:39;7.95;;;5.82;;
57730;SDS011;43570;47.476;19.040;2022-08-14T14:34:06;6.97;;;6.12;;
57730;SDS011;43570;47.476;19.040;2022-08-14T14:36:35;8.20;;;6.22;;
57730;SDS011;43570;47.476;19.040;2022-08-14T14:39:02;7.50;;;5.62;;
57730;SDS011;43570;47.476;19.040;2022-08-14T14:41:40;7.03;;;5.93;;
57730;SDS011;43570;47.476;19.040;2022-08-14T14:44:07;9.25;;;5.47;;
57730;SDS011;43570;47.476;19.040;2022-08-14T14:46:35;9.15;;;6.05;;
57730;SDS011;43570;47.476;19.040;2022-08-14T14:49:02;7.20;;;6.00;;
57730;SDS011;43570;47.476;19.040;2022-08-14T14:51:29;7.97;;;7.18;;
57730;SDS011;43570;47.476;19.040;2022-08-14T14:53:55;8.00;;;6.15;;
57730;SDS011;43570;47.476;19.040;2022-08-14T14:56:21;7.05;;;5.90;;
57730;SDS011;43570;47.476;19.040;2022-08-14T14:58:47;7.65;;;5.20;;
57730;SDS011;43570;47.476;19.040;2022-08-14T15:01:13;7.45;;;5.50;;
57730;SDS011;43570;47.476;19.040;2022-08-14T15:03:48;6.50;;;5.65;;